Time,TemperatureF,DewpointF,PressureIn,WindDirection,WindDirectionDegrees,WindSpeedMPH,WindSpeedGustMPH,Humidity,HourlyPrecipIn,Conditions,Clouds,dailyrainin,SoftwareType,DateUTC
2013-09-14 00:04:00,70.4,40.0,29.23,NE,39,5.1,7.2,33,-99.99,,,-99.99,WSDL version 426,2013-09-14 05:04:00,
2013-09-14 00:09:00,70.2,39.9,29.23,NE,40,5.1,8.7,33,-99.99,,,-99.99,WSDL version 426,2013-09-14 05:09:00,
2013-09-14 00:14:00,70.4,40.6,29.23,NE,56,4.1,8.7,34,-99.99,,,-99.99,WSDL version 426,2013-09-14 05:14:00,
2013-09-14 00:19:00,70.7,40.3,29.23,NE,42,4.1,7.8,33,-99.99,,,-99.99,WSDL version 426,2013-09-14 05:19:00,
2013-09-14 00:24:00,70.3,40.1,29.23,NE,51,4.4,6.5,34,-99.99,,,-99.99,WSDL version 426,2013-09-14 05:24:00,
2013-09-14 00:29:00,70.0,40.1,29.23,NE,42,3.3,6.5,34,-99.99,,,-99.99,WSDL version 426,2013-09-14 05:29:00,
2013-09-14 00:34:00,69.7,40.1,29.23,NE,48,3.8,8.5,34,-99.99,,,-99.99,WSDL version 426,2013-09-14 05:34:00,
2013-09-14 00:39:00,70.0,40.4,29.23,NE,39,4.5,8.5,34,-99.99,,,-99.99,WSDL version 426,2013-09-14 05:39:00,
2013-09-14 00:44:00,70.2,40.5,29.23,NE,43,4.8,8.1,34,-99.99,,,-99.99,WSDL version 426,2013-09-14 05:44:00,
2013-09-14 00:49:00,69.7,40.6,29.23,NNE,33,5.6,8.9,35,-99.99,,,-99.99,WSDL version 426,2013-09-14 05:49:00,
2013-09-14 00:54:00,69.4,40.6,29.23,NE,42,4.1,8.9,35,-99.99,,,-99.99,WSDL version 426,2013-09-14 05:54:00,
2013-09-14 00:59:00,69.1,40.3,29.23,ENE,60,3.9,5.8,35,-99.99,,,-99.99,WSDL version 426,2013-09-14 05:59:00,
2013-09-14 01:04:00,69.4,40.6,29.23,NE,53,4.1,7.6,35,-99.99,,,-99.99,WSDL version 426,2013-09-14 06:04:00,
2013-09-14 01:09:00,69.4,40.6,29.23,NE,55,4.2,7.6,35,-99.99,,,-99.99,WSDL version 426,2013-09-14 06:09:00,
2013-09-14 01:14:00,69.1,40.3,29.23,NE,45,4.2,6.5,35,-99.99,,,-99.99,WSDL version 426,2013-09-14 06:14:00,
2013-09-14 01:19:00,68.8,40.0,29.23,ENE,60,3.0,6.5,35,-99.99,,,-99.99,WSDL version 426,2013-09-14 06:19:00,
2013-09-14 01:24:00,68.6,40.6,29.23,NE,50,3.5,5.6,36,-99.99,,,-99.99,WSDL version 426,2013-09-14 06:24:00,
2013-09-14 01:29:00,68.4,40.5,29.23,NE,53,3.5,5.6,37,-99.99,,,-99.99,WSDL version 426,2013-09-14 06:29:00,
2013-09-14 01:34:00,68.6,41.3,29.23,NE,56,3.7,5.4,37,-99.99,,,-99.99,WSDL version 426,2013-09-14 06:34:00,
2013-09-14 01:39:00,68.8,41.0,29.23,ENE,59,3.5,4.9,36,-99.99,,,-99.99,WSDL version 426,2013-09-14 06:39:00,
2013-09-14 01:44:00,68.3,40.6,29.23,ENE,60,3.6,5.6,37,-99.99,,,-99.99,WSDL version 426,2013-09-14 06:44:00,
2013-09-14 01:49:00,68.0,40.9,29.23,NE,45,3.8,5.8,38,-99.99,,,-99.99,WSDL version 426,2013-09-14 06:49:00,
2013-09-14 01:54:00,67.8,40.6,29.23,NE,55,2.8,5.8,37,-99.99,,,-99.99,WSDL version 426,2013-09-14 06:54:00,
2013-09-14 01:59:00,67.6,41.0,29.23,ENE,60,3.3,5.6,38,-99.99,,,-99.99,WSDL version 426,2013-09-14 06:59:00,
2013-09-14 02:04:00,67.4,40.9,29.23,NE,56,2.9,4.3,38,-99.99,,,-99.99,WSDL version 426,2013-09-14 07:04:00,
2013-09-14 02:09:00,67.2,40.8,29.23,NE,40,2.4,4.3,38,-99.99,,,-99.99,WSDL version 426,2013-09-14 07:09:00,
2013-09-14 02:14:00,67.1,41.5,29.23,NNE,31,3.1,5.4,40,-99.99,,,-99.99,WSDL version 426,2013-09-14 07:14:00,
2013-09-14 02:19:00,67.6,42.3,29.23,ENE,65,3.9,5.8,39,-99.99,,,-99.99,WSDL version 426,2013-09-14 07:19:00,
2013-09-14 02:24:00,67.5,41.7,29.23,ENE,62,2.2,5.8,39,-99.99,,,-99.99,WSDL version 426,2013-09-14 07:24:00,
2013-09-14 02:29:00,67.1,41.7,29.23,NE,40,3.6,4.9,40,-99.99,,,-99.99,WSDL version 426,2013-09-14 07:29:00,
2013-09-14 02:34:00,66.8,41.6,29.23,NE,43,3.2,4.9,40,-99.99,,,-99.99,WSDL version 426,2013-09-14 07:34:00,
2013-09-14 02:39:00,66.6,41.6,29.23,NE,48,3.4,6.0,40,-99.99,,,-99.99,WSDL version 426,2013-09-14 07:39:00,
2013-09-14 02:44:00,66.4,41.5,29.23,NE,53,3.1,6.0,41,-99.99,,,-99.99,WSDL version 426,2013-09-14 07:44:00,
2013-09-14 02:49:00,66.3,41.9,29.23,ENE,62,3.2,4.3,41,-99.99,,,-99.99,WSDL version 426,2013-09-14 07:49:00,
2013-09-14 02:54:00,66.2,42.0,29.23,ENE,78,3.0,4.3,42,-99.99,,,-99.99,WSDL version 426,2013-09-14 07:54:00,
2013-09-14 02:59:00,66.0,42.3,29.23,ENE,61,2.6,4.3,42,-99.99,,,-99.99,WSDL version 426,2013-09-14 07:59:00,
2013-09-14 03:04:00,65.9,42.3,29.26,ENE,68,3.0,4.3,43,-99.99,,,-99.99,WSDL version 426,2013-09-14 08:04:00,
2013-09-14 03:09:00,66.0,42.9,29.26,ENE,58,2.8,4.3,43,-99.99,,,-99.99,WSDL version 426,2013-09-14 08:09:00,
2013-09-14 03:14:00,66.7,43.4,29.26,East,84,2.1,4.0,43,-99.99,,,-99.99,WSDL version 426,2013-09-14 08:14:00,
2013-09-14 03:19:00,66.4,42.8,29.23,NE,56,2.7,3.8,42,-99.99,,,-99.99,WSDL version 426,2013-09-14 08:19:00,
2013-09-14 03:24:00,66.1,42.9,29.23,East,98,1.6,4.0,43,-99.99,,,-99.99,WSDL version 426,2013-09-14 08:24:00,
2013-09-14 03:29:00,65.8,42.7,29.23,ENE,78,2.2,4.0,43,-99.99,,,-99.99,WSDL version 426,2013-09-14 08:29:00,
2013-09-14 03:34:00,65.7,42.6,29.23,NE,56,2.3,3.1,43,-99.99,,,-99.99,WSDL version 426,2013-09-14 08:34:00,
2013-09-14 03:39:00,65.5,42.7,29.23,ENE,70,3.1,4.3,44,-99.99,,,-99.99,WSDL version 426,2013-09-14 08:39:00,
2013-09-14 03:44:00,65.3,42.9,29.23,ENE,76,2.8,4.3,44,-99.99,,,-99.99,WSDL version 426,2013-09-14 08:44:00,
2013-09-14 03:49:00,65.1,42.7,29.23,ENE,68,2.0,3.8,44,-99.99,,,-99.99,WSDL version 426,2013-09-14 08:49:00,
2013-09-14 03:54:00,65.0,42.6,29.23,NE,50,2.6,3.4,44,-99.99,,,-99.99,WSDL version 426,2013-09-14 08:54:00,
2013-09-14 03:59:00,64.9,42.5,29.23,ENE,62,2.4,3.8,44,-99.99,,,-99.99,WSDL version 426,2013-09-14 08:59:00,
2013-09-14 04:04:00,64.8,42.7,29.23,NE,43,3.3,5.4,45,-99.99,,,-99.99,WSDL version 426,2013-09-14 09:04:00,
2013-09-14 04:09:00,64.7,42.9,29.23,ENE,65,3.2,5.4,45,-99.99,,,-99.99,WSDL version 426,2013-09-14 09:09:00,
2013-09-14 04:14:00,64.6,42.8,29.23,ENE,68,1.4,4.9,45,-99.99,,,-99.99,WSDL version 426,2013-09-14 09:14:00,
2013-09-14 04:19:00,64.8,43.8,29.23,NE,45,2.8,3.6,47,-99.99,,,-99.99,WSDL version 426,2013-09-14 09:19:00,
2013-09-14 04:24:00,65.3,44.0,29.23,NE,51,3.0,4.0,46,-99.99,,,-99.99,WSDL version 426,2013-09-14 09:24:00,
2013-09-14 04:29:00,65.0,43.5,29.23,NE,43,3.0,4.0,45,-99.99,,,-99.99,WSDL version 426,2013-09-14 09:29:00,
2013-09-14 04:34:00,64.7,43.3,29.23,NE,39,2.6,4.9,46,-99.99,,,-99.99,WSDL version 426,2013-09-14 09:34:00,
2013-09-14 04:39:00,64.4,43.2,29.23,ENE,63,2.7,4.9,46,-99.99,,,-99.99,WSDL version 426,2013-09-14 09:39:00,
2013-09-14 04:44:00,64.2,43.6,29.23,ENE,71,2.3,4.3,47,-99.99,,,-99.99,WSDL version 426,2013-09-14 09:44:00,
2013-09-14 04:49:00,64.1,43.5,29.23,ESE,113,2.2,4.3,47,-99.99,,,-99.99,WSDL version 426,2013-09-14 09:49:00,
2013-09-14 04:54:00,63.9,43.4,29.23,NE,53,2.2,4.0,48,-99.99,,,-99.99,WSDL version 426,2013-09-14 09:54:00,
2013-09-14 04:59:00,63.9,43.8,29.23,ESE,113,1.3,2.9,48,-99.99,,,-99.99,WSDL version 426,2013-09-14 09:59:00,
2013-09-14 05:04:00,63.7,43.6,29.23,ENE,75,1.5,2.7,48,-99.99,,,-99.99,WSDL version 426,2013-09-14 10:04:00,
2013-09-14 05:09:00,63.5,43.6,29.23,ESE,110,1.6,2.7,49,-99.99,,,-99.99,WSDL version 426,2013-09-14 10:09:00,
2013-09-14 05:14:00,63.3,43.9,29.23,NE,43,2.7,3.6,49,-99.99,,,-99.99,WSDL version 426,2013-09-14 10:14:00,
2013-09-14 05:19:00,63.1,43.7,29.23,ENE,62,2.2,5.4,49,-99.99,,,-99.99,WSDL version 426,2013-09-14 10:19:00,
2013-09-14 05:24:00,63.2,43.9,29.23,ENE,70,2.4,5.4,51,-99.99,,,-99.99,WSDL version 426,2013-09-14 10:24:00,
2013-09-14 05:29:00,63.8,45.6,29.23,ENE,68,2.4,3.6,51,-99.99,,,-99.99,WSDL version 426,2013-09-14 10:29:00,
2013-09-14 05:34:00,64.0,45.2,29.26,ENE,68,2.9,3.6,50,-99.99,,,-99.99,WSDL version 426,2013-09-14 10:34:00,
2013-09-14 05:39:00,63.7,44.5,29.26,ENE,65,2.9,3.8,50,-99.99,,,-99.99,WSDL version 426,2013-09-14 10:39:00,
2013-09-14 05:44:00,63.5,44.4,29.26,ESE,104,2.1,3.8,50,-99.99,,,-99.99,WSDL version 426,2013-09-14 10:44:00,
2013-09-14 05:49:00,63.3,44.4,29.23,ENE,76,2.3,3.4,50,-99.99,,,-99.99,WSDL version 426,2013-09-14 10:49:00,
2013-09-14 05:54:00,63.1,44.2,29.23,ENE,68,2.7,4.0,50,-99.99,,,-99.99,WSDL version 426,2013-09-14 10:54:00,
2013-09-14 05:59:00,63.0,44.2,29.23,NE,55,2.2,4.0,50,-99.99,,,-99.99,WSDL version 426,2013-09-14 10:59:00,
2013-09-14 06:04:00,63.0,44.2,29.26,ENE,70,2.3,4.0,50,-99.99,,,-99.99,WSDL version 426,2013-09-14 11:04:00,
2013-09-14 06:09:00,63.0,44.3,29.26,ENE,68,3.0,4.0,51,-99.99,,,-99.99,WSDL version 426,2013-09-14 11:09:00,
2013-09-14 06:14:00,62.9,44.5,29.26,ENE,65,3.4,4.9,51,-99.99,,,-99.99,WSDL version 426,2013-09-14 11:14:00,
2013-09-14 06:19:00,62.8,44.5,29.26,ENE,68,2.2,4.9,52,-99.99,,,-99.99,WSDL version 426,2013-09-14 11:19:00,
2013-09-14 06:24:00,62.8,44.5,29.26,ENE,63,2.6,3.8,52,-99.99,,,-99.99,WSDL version 426,2013-09-14 11:24:00,
2013-09-14 06:29:00,62.6,44.5,29.26,ENE,70,2.1,3.8,52,-99.99,,,-99.99,WSDL version 426,2013-09-14 11:29:00,
2013-09-14 06:34:00,62.6,44.7,29.26,East,79,2.9,4.0,52,-99.99,,,-99.99,WSDL version 426,2013-09-14 11:34:00,
2013-09-14 06:39:00,62.6,44.8,29.26,East,93,2.1,4.9,53,-99.99,,,-99.99,WSDL version 426,2013-09-14 11:39:00,
2013-09-14 06:44:00,62.5,45.1,29.26,ENE,73,2.3,4.9,53,-99.99,,,-99.99,WSDL version 426,2013-09-14 11:44:00,
2013-09-14 06:49:00,62.3,45.5,29.26,ENE,73,3.1,4.7,54,-99.99,,,-99.99,WSDL version 426,2013-09-14 11:49:00,
2013-09-14 06:54:00,62.2,45.2,29.26,ENE,70,2.9,4.7,54,-99.99,,,-99.99,WSDL version 426,2013-09-14 11:54:00,
2013-09-14 06:59:00,62.2,45.4,29.26,ENE,60,3.0,3.8,54,-99.99,,,-99.99,WSDL version 426,2013-09-14 11:59:00,
2013-09-14 07:04:00,62.1,45.2,29.26,ENE,70,2.6,4.3,54,-99.99,,,-99.99,WSDL version 426,2013-09-14 12:04:00,
2013-09-14 07:09:00,62.1,45.2,29.26,ENE,73,2.9,4.3,54,-99.99,,,-99.99,WSDL version 426,2013-09-14 12:09:00,
2013-09-14 07:14:00,62.1,45.6,29.26,ENE,70,2.5,4.3,55,-99.99,,,-99.99,WSDL version 426,2013-09-14 12:14:00,
2013-09-14 07:19:00,62.1,45.7,29.26,ENE,70,2.6,3.8,55,-99.99,,,-99.99,WSDL version 426,2013-09-14 12:19:00,
2013-09-14 07:24:00,62.1,46.0,29.26,ENE,68,3.7,4.7,56,-99.99,,,-99.99,WSDL version 426,2013-09-14 12:24:00,
2013-09-14 07:29:00,62.1,46.2,29.26,ENE,76,2.7,4.7,56,-99.99,,,-99.99,WSDL version 426,2013-09-14 12:29:00,
2013-09-14 07:34:00,62.2,46.5,29.26,ENE,73,3.1,4.3,57,-99.99,,,-99.99,WSDL version 426,2013-09-14 12:34:00,
2013-09-14 07:39:00,62.3,46.9,29.26,East,98,2.0,4.3,57,-99.99,,,-99.99,WSDL version 426,2013-09-14 12:39:00,
2013-09-14 07:44:00,62.5,47.0,29.26,ESE,113,1.2,3.6,56,-99.99,,,-99.99,WSDL version 426,2013-09-14 12:44:00,
2013-09-14 07:49:00,62.7,47.0,29.29,ESE,113,1.1,2.2,56,-99.99,,,-99.99,WSDL version 426,2013-09-14 12:49:00,
2013-09-14 07:54:00,63.0,47.3,29.29,East,93,1.4,2.5,57,-99.99,,,-99.99,WSDL version 426,2013-09-14 12:54:00,
2013-09-14 07:59:00,63.2,47.9,29.29,ESE,110,2.8,4.0,58,-99.99,,,-99.99,WSDL version 426,2013-09-14 12:59:00,
2013-09-14 08:04:00,63.7,48.6,29.29,ESE,121,2.9,5.8,57,-99.99,,,-99.99,WSDL version 426,2013-09-14 13:04:00,
2013-09-14 08:09:00,64.2,48.8,29.29,East,101,3.4,7.2,57,-99.99,,,-99.99,WSDL version 426,2013-09-14 13:09:00,
2013-09-14 08:14:00,64.6,48.6,29.29,ESE,115,4.5,7.2,56,-99.99,,,-99.99,WSDL version 426,2013-09-14 13:14:00,
2013-09-14 08:19:00,65.1,48.5,29.29,SE,132,4.2,7.2,55,-99.99,,,-99.99,WSDL version 426,2013-09-14 13:19:00,
2013-09-14 08:24:00,65.5,48.2,29.29,ESE,113,6.0,9.8,53,-99.99,,,-99.99,WSDL version 426,2013-09-14 13:24:00,
2013-09-14 08:29:00,65.9,47.9,29.29,ESE,119,5.0,9.8,52,-99.99,,,-99.99,WSDL version 426,2013-09-14 13:29:00,
2013-09-14 08:34:00,66.3,47.7,29.29,ESE,108,5.9,8.9,51,-99.99,,,-99.99,WSDL version 426,2013-09-14 13:34:00,
2013-09-14 08:39:00,66.7,47.5,29.29,SE,124,5.4,10.7,50,-99.99,,,-99.99,WSDL version 426,2013-09-14 13:39:00,
2013-09-14 08:44:00,67.0,47.4,29.29,SE,128,6.2,10.7,49,-99.99,,,-99.99,WSDL version 426,2013-09-14 13:44:00,
2013-09-14 08:49:00,67.4,47.2,29.29,ESE,120,7.6,11.0,48,-99.99,,,-99.99,WSDL version 426,2013-09-14 13:49:00,
2013-09-14 08:54:00,67.7,47.3,29.29,SE,124,5.8,11.0,48,-99.99,,,-99.99,WSDL version 426,2013-09-14 13:54:00,
2013-09-14 08:59:00,68.2,47.4,29.29,SE,128,6.2,8.7,47,-99.99,,,-99.99,WSDL version 426,2013-09-14 13:59:00,
2013-09-14 09:04:00,68.6,47.3,29.29,ESE,120,5.7,8.1,46,-99.99,,,-99.99,WSDL version 426,2013-09-14 14:04:00,
2013-09-14 09:09:00,68.9,46.8,29.29,SE,128,6.7,10.5,45,-99.99,,,-99.99,WSDL version 426,2013-09-14 14:09:00,
2013-09-14 09:14:00,69.2,47.2,29.29,SE,129,6.7,10.5,45,-99.99,,,-99.99,WSDL version 426,2013-09-14 14:14:00,
2013-09-14 09:19:00,69.5,47.3,29.29,SE,131,3.9,9.6,45,-99.99,,,-99.99,WSDL version 426,2013-09-14 14:19:00,
2013-09-14 09:24:00,69.9,46.8,29.29,ESE,113,8.3,10.7,43,-99.99,,,-99.99,WSDL version 426,2013-09-14 14:24:00,
2013-09-14 09:29:00,70.3,46.8,29.29,SSE,148,4.1,10.7,43,-99.99,,,-99.99,WSDL version 426,2013-09-14 14:29:00,
2013-09-14 09:34:00,70.7,47.2,29.29,ESE,115,5.0,9.8,43,-99.99,,,-99.99,WSDL version 426,2013-09-14 14:34:00,
2013-09-14 09:39:00,71.2,46.8,29.29,ESE,118,7.2,10.7,41,-99.99,,,-99.99,WSDL version 426,2013-09-14 14:39:00,
2013-09-14 09:44:00,71.5,46.3,29.29,SE,130,5.1,10.7,40,-99.99,,,-99.99,WSDL version 426,2013-09-14 14:44:00,
2013-09-14 09:49:00,71.9,46.3,29.29,SE,129,6.9,12.3,40,-99.99,,,-99.99,WSDL version 426,2013-09-14 14:49:00,
2013-09-14 09:54:00,72.4,46.0,29.29,ESE,123,7.6,12.3,39,-99.99,,,-99.99,WSDL version 426,2013-09-14 14:54:00,
2013-09-14 09:59:00,72.7,45.3,29.29,SE,138,7.5,15.2,37,-99.99,,,-99.99,WSDL version 426,2013-09-14 14:59:00,
2013-09-14 10:04:00,73.1,45.4,29.29,SE,146,7.2,15.2,37,-99.99,,,-99.99,WSDL version 426,2013-09-14 15:04:00,
2013-09-14 10:09:00,73.6,44.7,29.29,SSE,160,6.2,10.5,35,-99.99,,,-99.99,WSDL version 426,2013-09-14 15:09:00,
2013-09-14 10:14:00,73.8,44.3,29.29,SSE,149,8.2,16.1,34,-99.99,,,-99.99,WSDL version 426,2013-09-14 15:14:00,
2013-09-14 10:19:00,74.0,44.5,29.29,ESE,123,5.8,16.1,35,-99.99,,,-99.99,WSDL version 426,2013-09-14 15:19:00,
2013-09-14 10:24:00,74.7,44.8,29.29,SE,128,8.0,12.3,34,-99.99,,,-99.99,WSDL version 426,2013-09-14 15:24:00,
2013-09-14 10:29:00,75.1,44.8,29.29,SE,133,8.9,12.3,34,-99.99,,,-99.99,WSDL version 426,2013-09-14 15:29:00,
2013-09-14 10:34:00,75.5,45.0,29.29,ESE,110,6.5,12.1,34,-99.99,,,-99.99,WSDL version 426,2013-09-14 15:34:00,
2013-09-14 10:39:00,75.7,44.6,29.29,ESE,109,10.1,13.4,33,-99.99,,,-99.99,WSDL version 426,2013-09-14 15:39:00,
2013-09-14 10:44:00,76.0,44.9,29.29,ESE,110,9.4,13.4,33,-99.99,,,-99.99,WSDL version 426,2013-09-14 15:44:00,
2013-09-14 10:49:00,76.4,45.1,29.29,SE,124,9.7,13.2,33,-99.99,,,-99.99,WSDL version 426,2013-09-14 15:49:00,
2013-09-14 10:54:00,76.8,45.3,29.29,ESE,121,6.6,13.2,32,-99.99,,,-99.99,WSDL version 426,2013-09-14 15:54:00,
2013-09-14 10:59:00,77.0,45.1,29.29,ESE,113,7.9,12.5,32,-99.99,,,-99.99,WSDL version 426,2013-09-14 15:59:00,
2013-09-14 11:04:00,77.5,45.3,29.29,SE,132,6.6,12.5,32,-99.99,,,-99.99,WSDL version 426,2013-09-14 16:04:00,
2013-09-14 11:09:00,77.9,45.7,29.29,SE,135,5.8,11.2,32,-99.99,,,-99.99,WSDL version 426,2013-09-14 16:09:00,
2013-09-14 11:14:00,78.2,45.7,29.29,ESE,108,8.2,13.2,31,-99.99,,,-99.99,WSDL version 426,2013-09-14 16:14:00,
2013-09-14 11:19:00,78.4,45.3,29.29,ESE,123,7.1,13.2,31,-99.99,,,-99.99,WSDL version 426,2013-09-14 16:19:00,
2013-09-14 11:24:00,78.5,45.4,29.29,SE,141,7.7,12.8,31,-99.99,,,-99.99,WSDL version 426,2013-09-14 16:24:00,
2013-09-14 11:29:00,78.7,45.5,29.29,SSE,163,5.2,10.7,31,-99.99,,,-99.99,WSDL version 426,2013-09-14 16:29:00,
2013-09-14 11:34:00,79.0,45.8,29.29,SSE,152,3.7,10.7,31,-99.99,,,-99.99,WSDL version 426,2013-09-14 16:34:00,
2013-09-14 11:39:00,79.3,45.7,29.29,East,98,6.4,10.5,31,-99.99,,,-99.99,WSDL version 426,2013-09-14 16:39:00,
2013-09-14 11:44:00,79.5,45.9,29.29,SSE,151,4.6,10.5,30,-99.99,,,-99.99,WSDL version 426,2013-09-14 16:44:00,
2013-09-14 11:49:00,79.6,46.1,29.29,ESE,121,4.8,10.3,31,-99.99,,,-99.99,WSDL version 426,2013-09-14 16:49:00,
2013-09-14 11:54:00,80.0,46.5,29.29,ESE,118,5.1,10.3,31,-99.99,,,-99.99,WSDL version 426,2013-09-14 16:54:00,
2013-09-14 11:59:00,80.8,46.5,29.29,ESE,116,7.2,9.8,30,-99.99,,,-99.99,WSDL version 426,2013-09-14 16:59:00,
2013-09-14 12:04:00,81.1,46.8,29.29,SE,130,6.4,13.2,30,-99.99,,,-99.99,WSDL version 426,2013-09-14 17:04:00,
2013-09-14 12:09:00,81.5,47.1,29.29,East,93,6.3,13.2,30,-99.99,,,-99.99,WSDL version 426,2013-09-14 17:09:00,
2013-09-14 12:14:00,81.7,47.3,29.29,SE,129,7.9,10.7,30,-99.99,,,-99.99,WSDL version 426,2013-09-14 17:14:00,
2013-09-14 12:19:00,82.0,47.4,29.29,SE,128,4.9,10.5,30,-99.99,,,-99.99,WSDL version 426,2013-09-14 17:19:00,
2013-09-14 12:24:00,82.3,47.1,29.29,SE,143,5.0,10.5,29,-99.99,,,-99.99,WSDL version 426,2013-09-14 17:24:00,
2013-09-14 12:29:00,82.8,47.4,29.29,ESE,113,6.3,13.9,29,-99.99,,,-99.99,WSDL version 426,2013-09-14 17:29:00,
2013-09-14 12:34:00,83.7,46.9,29.29,ESE,115,6.1,13.9,28,-99.99,,,-99.99,WSDL version 426,2013-09-14 17:34:00,
2013-09-14 12:39:00,84.1,48.0,29.29,ESE,115,4.8,9.4,29,-99.99,,,-99.99,WSDL version 426,2013-09-14 17:39:00,
2013-09-14 12:44:00,84.2,47.0,29.29,East,101,7.0,12.8,28,-99.99,,,-99.99,WSDL version 426,2013-09-14 17:44:00,
2013-09-14 12:49:00,84.3,47.1,29.29,ESE,108,7.1,12.8,27,-99.99,,,-99.99,WSDL version 426,2013-09-14 17:49:00,
2013-09-14 12:54:00,84.4,46.9,29.29,ESE,118,6.4,10.7,28,-99.99,,,-99.99,WSDL version 426,2013-09-14 17:54:00,
2013-09-14 12:59:00,84.8,46.9,29.29,ESE,103,4.5,9.8,27,-99.99,,,-99.99,WSDL version 426,2013-09-14 17:59:00,
2013-09-14 13:04:00,85.2,47.1,29.29,ESE,118,6.2,10.1,27,-99.99,,,-99.99,WSDL version 426,2013-09-14 18:04:00,
2013-09-14 13:09:00,85.5,47.1,29.29,ESE,110,6.8,10.1,26,-99.99,,,-99.99,WSDL version 426,2013-09-14 18:09:00,
2013-09-14 13:14:00,85.6,46.5,29.29,SE,133,6.5,11.0,26,-99.99,,,-99.99,WSDL version 426,2013-09-14 18:14:00,
2013-09-14 13:19:00,86.0,46.5,29.29,SE,135,5.5,11.0,25,-99.99,,,-99.99,WSDL version 426,2013-09-14 18:19:00,
2013-09-14 13:24:00,86.3,45.5,29.29,SE,128,5.0,12.3,24,-99.99,,,-99.99,WSDL version 426,2013-09-14 18:24:00,
2013-09-14 13:29:00,86.6,45.6,29.29,East,100,5.7,12.3,24,-99.99,,,-99.99,WSDL version 426,2013-09-14 18:29:00,
2013-09-14 13:34:00,86.8,45.7,29.26,SE,135,5.5,13.2,24,-99.99,,,-99.99,WSDL version 426,2013-09-14 18:34:00,
2013-09-14 13:39:00,87.2,46.4,29.26,East,93,6.7,13.2,24,-99.99,,,-99.99,WSDL version 426,2013-09-14 18:39:00,
2013-09-14 13:44:00,87.7,46.0,29.26,SE,129,3.7,10.1,23,-99.99,,,-99.99,WSDL version 426,2013-09-14 18:44:00,
2013-09-14 13:49:00,88.1,44.5,29.26,ESE,118,7.4,15.7,22,-99.99,,,-99.99,WSDL version 426,2013-09-14 18:49:00,
2013-09-14 13:54:00,88.2,44.6,29.26,SE,141,7.5,15.7,22,-99.99,,,-99.99,WSDL version 426,2013-09-14 18:54:00,
2013-09-14 13:59:00,88.2,44.8,29.26,ESE,105,4.2,12.5,23,-99.99,,,-99.99,WSDL version 426,2013-09-14 18:59:00,
2013-09-14 14:04:00,88.3,45.1,29.26,ESE,123,6.9,11.4,23,-99.99,,,-99.99,WSDL version 426,2013-09-14 19:04:00,
2013-09-14 14:09:00,88.2,45.1,29.26,ESE,122,5.9,11.4,23,-99.99,,,-99.99,WSDL version 426,2013-09-14 19:09:00,
2013-09-14 14:14:00,88.8,45.7,29.26,SE,130,5.8,13.2,23,-99.99,,,-99.99,WSDL version 426,2013-09-14 19:14:00,
2013-09-14 14:19:00,89.2,44.7,29.26,SE,128,5.1,13.2,22,-99.99,,,-99.99,WSDL version 426,2013-09-14 19:19:00,
2013-09-14 14:24:00,88.9,44.1,29.26,SSE,155,6.4,12.5,21,-99.99,,,-99.99,WSDL version 426,2013-09-14 19:24:00,
2013-09-14 14:29:00,88.7,44.2,29.26,SE,129,3.4,12.5,22,-99.99,,,-99.99,WSDL version 426,2013-09-14 19:29:00,
2013-09-14 14:34:00,89.2,45.4,29.23,ESE,107,6.5,10.3,21,-99.99,,,-99.99,WSDL version 426,2013-09-14 19:34:00,
2013-09-14 14:39:00,88.9,43.9,29.23,ENE,75,4.9,10.3,21,-99.99,,,-99.99,WSDL version 426,2013-09-14 19:39:00,
2013-09-14 14:44:00,88.6,43.9,29.23,ESE,108,6.0,10.3,21,-99.99,,,-99.99,WSDL version 426,2013-09-14 19:44:00,
2013-09-14 14:49:00,88.0,43.5,29.23,SE,133,5.2,10.3,21,-99.99,,,-99.99,WSDL version 426,2013-09-14 19:49:00,
2013-09-14 14:54:00,87.4,43.8,29.23,South,172,3.6,8.7,22,-99.99,,,-99.99,WSDL version 426,2013-09-14 19:54:00,
2013-09-14 14:59:00,87.2,43.7,29.23,South,180,3.1,7.6,22,-99.99,,,-99.99,WSDL version 426,2013-09-14 19:59:00,
2013-09-14 15:04:00,87.3,43.8,29.23,SSE,149,4.2,7.6,22,-99.99,,,-99.99,WSDL version 426,2013-09-14 20:04:00,
2013-09-14 15:09:00,87.8,44.8,29.23,ESE,120,4.3,7.4,23,-99.99,,,-99.99,WSDL version 426,2013-09-14 20:09:00,
2013-09-14 15:14:00,88.8,46.3,29.23,ESE,121,5.8,8.7,23,-99.99,,,-99.99,WSDL version 426,2013-09-14 20:14:00,
2013-09-14 15:19:00,89.7,45.6,29.23,ESE,108,4.5,8.7,21,-99.99,,,-99.99,WSDL version 426,2013-09-14 20:19:00,
2013-09-14 15:24:00,90.7,44.6,29.23,East,87,6.9,11.0,20,-99.99,,,-99.99,WSDL version 426,2013-09-14 20:24:00,
2013-09-14 15:29:00,90.9,44.5,29.23,ESE,107,7.7,11.0,20,-99.99,,,-99.99,WSDL version 426,2013-09-14 20:29:00,
2013-09-14 15:34:00,91.2,44.8,29.21,SE,125,5.6,11.0,20,-99.99,,,-99.99,WSDL version 426,2013-09-14 20:34:00,
2013-09-14 15:39:00,91.4,44.2,29.21,South,172,5.0,10.5,20,-99.99,,,-99.99,WSDL version 426,2013-09-14 20:39:00,
2013-09-14 15:44:00,91.4,43.9,29.21,East,98,5.0,10.1,19,-99.99,,,-99.99,WSDL version 426,2013-09-14 20:44:00,
2013-09-14 15:49:00,91.6,43.5,29.21,ESE,106,6.3,13.2,19,-99.99,,,-99.99,WSDL version 426,2013-09-14 20:49:00,
2013-09-14 15:54:00,92.4,44.6,29.21,ESE,108,5.5,13.2,19,-99.99,,,-99.99,WSDL version 426,2013-09-14 20:54:00,
2013-09-14 15:59:00,93.0,44.5,29.21,SE,128,7.1,12.1,19,-99.99,,,-99.99,WSDL version 426,2013-09-14 20:59:00,
2013-09-14 16:04:00,92.6,44.0,29.23,SSE,166,6.2,12.1,18,-99.99,,,-99.99,WSDL version 426,2013-09-14 21:04:00,
2013-09-14 16:09:00,92.3,44.1,29.23,SE,145,4.9,8.7,19,-99.99,,,-99.99,WSDL version 426,2013-09-14 21:09:00,
2013-09-14 16:14:00,91.8,43.7,29.23,SE,132,5.9,10.5,19,-99.99,,,-99.99,WSDL version 426,2013-09-14 21:14:00,
2013-09-14 16:19:00,91.4,43.4,29.21,SE,125,7.7,12.8,19,-99.99,,,-99.99,WSDL version 426,2013-09-14 21:19:00,
2013-09-14 16:24:00,91.7,43.7,29.21,ESE,123,5.9,12.8,19,-99.99,,,-99.99,WSDL version 426,2013-09-14 21:24:00,
2013-09-14 16:29:00,93.0,44.7,29.21,SE,128,5.6,13.4,19,-99.99,,,-99.99,WSDL version 426,2013-09-14 21:29:00,
2013-09-14 16:34:00,93.8,43.9,29.21,ESE,104,4.5,13.4,18,-99.99,,,-99.99,WSDL version 426,2013-09-14 21:34:00,
2013-09-14 16:39:00,93.3,43.8,29.21,SE,127,6.3,10.3,18,-99.99,,,-99.99,WSDL version 426,2013-09-14 21:39:00,
2013-09-14 16:44:00,93.3,43.5,29.21,SE,133,4.0,10.3,18,-99.99,,,-99.99,WSDL version 426,2013-09-14 21:44:00,
2013-09-14 16:49:00,93.4,43.6,29.21,ESE,113,4.7,7.6,18,-99.99,,,-99.99,WSDL version 426,2013-09-14 21:49:00,
2013-09-14 16:54:00,93.0,44.4,29.21,ESE,123,4.7,11.2,19,-99.99,,,-99.99,WSDL version 426,2013-09-14 21:54:00,
2013-09-14 17:00:00,92.3,44.2,29.21,SE,138,4.8,11.2,19,-99.99,,,-99.99,WSDL version 426,2013-09-14 22:00:00,
2013-09-14 17:05:00,93.8,44.3,29.21,SE,124,4.3,7.6,18,-99.99,,,-99.99,WSDL version 426,2013-09-14 22:05:00,
2013-09-14 17:10:00,94.1,44.2,29.21,ESE,121,5.8,8.7,18,-99.99,,,-99.99,WSDL version 426,2013-09-14 22:10:00,
2013-09-14 17:15:00,94.7,44.1,29.21,SE,141,4.7,8.9,17,-99.99,,,-99.99,WSDL version 426,2013-09-14 22:15:00,
2013-09-14 17:20:00,95.0,44.3,29.21,SSE,148,5.5,8.9,18,-99.99,,,-99.99,WSDL version 426,2013-09-14 22:20:00,
2013-09-14 17:25:00,94.8,44.5,29.21,SE,127,5.5,8.7,18,-99.99,,,-99.99,WSDL version 426,2013-09-14 22:25:00,
2013-09-14 17:30:00,94.9,44.2,29.18,ESE,118,5.2,9.6,17,-99.99,,,-99.99,WSDL version 426,2013-09-14 22:30:00,
2013-09-14 17:35:00,94.9,43.9,29.18,SE,129,5.6,9.6,18,-99.99,,,-99.99,WSDL version 426,2013-09-14 22:35:00,
2013-09-14 17:40:00,94.5,43.9,29.18,SE,132,5.0,8.9,18,-99.99,,,-99.99,WSDL version 426,2013-09-14 22:40:00,
2013-09-14 17:45:00,93.6,43.5,29.18,SE,138,5.6,10.1,18,-99.99,,,-99.99,WSDL version 426,2013-09-14 22:45:00,
2013-09-14 17:50:00,93.6,43.8,29.18,South,173,4.8,10.1,18,-99.99,,,-99.99,WSDL version 426,2013-09-14 22:50:00,
2013-09-14 17:55:00,93.5,43.7,29.18,SSE,153,4.0,9.6,18,-99.99,,,-99.99,WSDL version 426,2013-09-14 22:55:00,
2013-09-14 18:00:00,93.7,43.9,29.18,SSE,152,3.0,8.5,18,-99.99,,,-99.99,WSDL version 426,2013-09-14 23:00:00,
2013-09-14 18:05:00,93.2,43.4,29.18,SE,143,5.4,7.8,18,-99.99,,,-99.99,WSDL version 426,2013-09-14 23:05:00,
2013-09-14 18:10:00,93.0,43.3,29.18,SSE,152,4.2,9.8,18,-99.99,,,-99.99,WSDL version 426,2013-09-14 23:10:00,
2013-09-14 18:15:00,92.8,43.2,29.18,SSE,153,4.8,9.8,18,-99.99,,,-99.99,WSDL version 426,2013-09-14 23:15:00,
2013-09-14 18:20:00,92.8,43.1,29.18,SE,146,4.1,7.6,18,-99.99,,,-99.99,WSDL version 426,2013-09-14 23:20:00,
2013-09-14 18:25:00,92.2,42.7,29.18,South,173,3.7,6.5,18,-99.99,,,-99.99,WSDL version 426,2013-09-14 23:25:00,
2013-09-14 18:30:00,91.3,42.7,29.18,SSE,155,3.5,6.5,19,-99.99,,,-99.99,WSDL version 426,2013-09-14 23:30:00,
2013-09-14 18:35:00,90.1,42.3,29.18,SSE,149,4.3,7.4,19,-99.99,,,-99.99,WSDL version 426,2013-09-14 23:35:00,
2013-09-14 18:40:00,89.3,42.8,29.18,SE,133,3.4,7.4,20,-99.99,,,-99.99,WSDL version 426,2013-09-14 23:40:00,
2013-09-14 18:45:00,88.7,42.5,29.18,SSE,152,4.4,6.5,20,-99.99,,,-99.99,WSDL version 426,2013-09-14 23:45:00,
2013-09-14 18:50:00,88.8,43.4,29.18,SSE,163,3.6,6.5,21,-99.99,,,-99.99,WSDL version 426,2013-09-14 23:50:00,
2013-09-14 18:55:00,88.3,43.5,29.18,SSE,160,3.0,5.6,21,-99.99,,,-99.99,WSDL version 426,2013-09-14 23:55:00,
2013-09-14 19:00:00,87.7,43.7,29.18,SE,145,2.4,5.4,22,-99.99,,,-99.99,WSDL version 426,2013-09-15 00:00:00,
2013-09-14 19:05:00,87.0,43.8,29.18,SSE,158,2.9,4.7,23,-99.99,,,-99.99,WSDL version 426,2013-09-15 00:05:00,
2013-09-14 19:10:00,86.0,44.4,29.18,SSE,158,2.7,4.7,24,-99.99,,,-99.99,WSDL version 426,2013-09-15 00:10:00,
2013-09-14 19:15:00,85.8,45.7,29.18,SE,143,2.4,4.0,25,-99.99,,,-99.99,WSDL version 426,2013-09-15 00:15:00,
2013-09-14 19:20:00,85.0,45.3,29.18,ESE,115,2.3,3.4,25,-99.99,,,-99.99,WSDL version 426,2013-09-15 00:20:00,
2013-09-14 19:25:00,84.0,46.0,29.18,ESE,120,1.2,2.9,27,-99.99,,,-99.99,WSDL version 426,2013-09-15 00:25:00,
2013-09-14 19:30:00,83.5,47.9,29.21,SE,127,1.6,2.7,29,-99.99,,,-99.99,WSDL version 426,2013-09-15 00:30:00,
2013-09-14 19:35:00,83.3,47.8,29.21,ESE,110,2.1,2.7,29,-99.99,,,-99.99,WSDL version 426,2013-09-15 00:35:00,
2013-09-14 19:40:00,82.6,47.3,29.21,SE,124,3.7,4.9,30,-99.99,,,-99.99,WSDL version 426,2013-09-15 00:40:00,
2013-09-14 19:45:00,81.4,47.0,29.18,ESE,118,3.4,5.6,30,-99.99,,,-99.99,WSDL version 426,2013-09-15 00:45:00,
2013-09-14 19:50:00,80.6,46.7,29.18,SE,135,3.2,5.6,31,-99.99,,,-99.99,WSDL version 426,2013-09-15 00:50:00,
2013-09-14 19:55:00,80.8,47.4,29.18,ESE,122,2.9,4.9,31,-99.99,,,-99.99,WSDL version 426,2013-09-15 00:55:00,
2013-09-14 20:00:00,80.9,47.5,29.18,ESE,118,2.2,4.0,31,-99.99,,,-99.99,WSDL version 426,2013-09-15 01:00:00,
2013-09-14 20:05:00,80.4,46.8,29.18,ESE,115,2.4,4.7,31,-99.99,,,-99.99,WSDL version 426,2013-09-15 01:05:00,
2013-09-14 20:10:00,79.7,46.7,29.18,ESE,123,3.0,4.7,32,-99.99,,,-99.99,WSDL version 426,2013-09-15 01:10:00,
2013-09-14 20:15:00,79.7,47.3,29.18,SE,128,3.2,4.7,32,-99.99,,,-99.99,WSDL version 426,2013-09-15 01:15:00,
2013-09-14 20:20:00,80.0,47.6,29.18,ESE,113,4.0,5.6,32,-99.99,,,-99.99,WSDL version 426,2013-09-15 01:20:00,
2013-09-14 20:25:00,79.3,46.9,29.18,ESE,110,4.7,7.6,32,-99.99,,,-99.99,WSDL version 426,2013-09-15 01:25:00,
2013-09-14 20:30:00,79.2,46.8,29.18,ESE,113,4.9,9.6,32,-99.99,,,-99.99,WSDL version 426,2013-09-15 01:30:00,
2013-09-14 20:35:00,79.3,47.0,29.18,ESE,118,5.5,9.6,32,-99.99,,,-99.99,WSDL version 426,2013-09-15 01:35:00,
2013-09-14 20:40:00,79.3,46.9,29.18,SE,127,5.4,8.1,32,-99.99,,,-99.99,WSDL version 426,2013-09-15 01:40:00,
2013-09-14 20:45:00,79.2,46.5,29.18,SE,141,7.9,12.5,31,-99.99,,,-99.99,WSDL version 426,2013-09-15 01:45:00,
2013-09-14 20:50:00,79.2,46.0,29.18,ESE,123,6.7,12.5,31,-99.99,,,-99.99,WSDL version 426,2013-09-15 01:50:00,
2013-09-14 20:55:00,79.0,45.8,29.18,ESE,118,6.9,10.3,31,-99.99,,,-99.99,WSDL version 426,2013-09-15 01:55:00,
2013-09-14 21:00:00,78.9,45.8,29.18,ESE,118,7.0,9.6,31,-99.99,,,-99.99,WSDL version 426,2013-09-15 02:00:00,
2013-09-14 21:05:00,78.8,45.7,29.18,SE,129,6.4,9.8,31,-99.99,,,-99.99,WSDL version 426,2013-09-15 02:05:00,
2013-09-14 21:10:00,78.7,45.9,29.18,SE,132,6.8,10.3,31,-99.99,,,-99.99,WSDL version 426,2013-09-15 02:10:00,
2013-09-14 21:15:00,78.5,45.4,29.18,SE,129,7.7,10.5,31,-99.99,,,-99.99,WSDL version 426,2013-09-15 02:15:00,
2013-09-14 21:20:00,78.4,45.3,29.18,SE,129,8.4,13.2,31,-99.99,,,-99.99,WSDL version 426,2013-09-15 02:20:00,
2013-09-14 21:25:00,78.0,45.7,29.18,SE,125,8.1,13.2,32,-99.99,,,-99.99,WSDL version 426,2013-09-15 02:25:00,
2013-09-14 21:30:00,77.4,45.2,29.18,SE,124,7.7,12.8,32,-99.99,,,-99.99,WSDL version 426,2013-09-15 02:30:00,
2013-09-14 21:35:00,77.3,45.2,29.18,SE,127,6.4,12.5,32,-99.99,,,-99.99,WSDL version 426,2013-09-15 02:35:00,
2013-09-14 21:40:00,77.3,45.2,29.18,SE,129,7.3,12.5,32,-99.99,,,-99.99,WSDL version 426,2013-09-15 02:40:00,
2013-09-14 21:45:00,77.1,45.0,29.18,ESE,123,6.3,9.6,32,-99.99,,,-99.99,WSDL version 426,2013-09-15 02:45:00,
2013-09-14 21:50:00,76.7,45.2,29.18,ESE,121,6.5,11.0,33,-99.99,,,-99.99,WSDL version 426,2013-09-15 02:50:00,
2013-09-14 21:55:00,76.2,45.0,29.18,SE,130,7.0,11.0,33,-99.99,,,-99.99,WSDL version 426,2013-09-15 02:55:00,
2013-09-14 22:00:00,76.2,45.1,29.18,ESE,121,5.9,10.1,33,-99.99,,,-99.99,WSDL version 426,2013-09-15 03:00:00,
2013-09-14 22:05:00,76.4,45.2,29.18,SE,127,4.7,10.1,33,-99.99,,,-99.99,WSDL version 426,2013-09-15 03:05:00,
2013-09-14 22:10:00,76.3,45.1,29.18,SE,130,5.6,9.6,33,-99.99,,,-99.99,WSDL version 426,2013-09-15 03:10:00,
2013-09-14 22:15:00,75.6,44.5,29.21,SE,124,4.6,9.6,33,-99.99,,,-99.99,WSDL version 426,2013-09-15 03:15:00,
2013-09-14 22:20:00,75.2,44.6,29.21,SE,128,5.5,8.7,34,-99.99,,,-99.99,WSDL version 426,2013-09-15 03:20:00,
2013-09-14 22:25:00,75.4,45.2,29.21,SE,138,4.8,8.7,34,-99.99,,,-99.99,WSDL version 426,2013-09-15 03:25:00,
2013-09-14 22:30:00,75.4,45.1,29.18,SE,143,3.4,6.3,34,-99.99,,,-99.99,WSDL version 426,2013-09-15 03:30:00,
2013-09-14 22:35:00,74.8,44.7,29.18,SE,145,2.5,6.0,35,-99.99,,,-99.99,WSDL version 426,2013-09-15 03:35:00,
2013-09-14 22:40:00,74.3,45.0,29.18,ESE,113,1.9,5.8,36,-99.99,,,-99.99,WSDL version 426,2013-09-15 03:40:00,
2013-09-14 22:45:00,74.4,45.5,29.21,South,190,2.2,5.8,36,-99.99,,,-99.99,WSDL version 426,2013-09-15 03:45:00,
2013-09-14 22:50:00,73.7,45.4,29.21,SSW,194,2.1,4.9,37,-99.99,,,-99.99,WSDL version 426,2013-09-15 03:50:00,
2013-09-14 22:55:00,73.0,45.8,29.21,SSW,203,2.4,4.9,39,-99.99,,,-99.99,WSDL version 426,2013-09-15 03:55:00,
2013-09-14 23:00:00,72.5,46.4,29.21,SW,225,2.5,3.1,41,-99.99,,,-99.99,WSDL version 426,2013-09-15 04:00:00,
2013-09-14 23:01:00,72.5,46.8,29.21,SW,225,2.5,3.1,41,-99.99,,,-99.99,WSDL version 426,2013-09-15 04:01:00,
2013-09-14 23:02:00,72.4,47.1,29.21,SW,225,2.4,3.1,41,-99.99,,,-99.99,WSDL version 426,2013-09-15 04:02:00,
2013-09-14 23:04:00,72.3,47.6,29.21,SW,231,2.1,2.9,42,-99.99,,,-99.99,WSDL version 426,2013-09-15 04:04:00,
2013-09-14 23:06:00,72.4,47.9,29.21,SW,220,2.0,2.9,43,-99.99,,,-99.99,WSDL version 426,2013-09-15 04:06:00,
2013-09-14 23:07:00,72.4,48.2,29.21,SW,228,1.9,2.9,43,-99.99,,,-99.99,WSDL version 426,2013-09-15 04:07:00,
2013-09-14 23:08:00,72.5,48.5,29.21,SW,228,1.7,2.9,43,-99.99,,,-99.99,WSDL version 426,2013-09-15 04:08:00,
2013-09-14 23:13:00,72.5,48.4,29.21,South,180,1.4,2.9,42,-99.99,,,-99.99,WSDL version 426,2013-09-15 04:13:00,
2013-09-14 23:18:00,72.0,47.7,29.21,South,172,1.8,2.5,42,-99.99,,,-99.99,WSDL version 426,2013-09-15 04:18:00,
2013-09-14 23:23:00,71.7,47.3,29.21,South,178,2.2,3.4,42,-99.99,,,-99.99,WSDL version 426,2013-09-15 04:23:00,
2013-09-14 23:28:00,71.7,47.5,29.21,SSW,197,1.9,5.4,42,-99.99,,,-99.99,WSDL version 426,2013-09-15 04:28:00,
2013-09-14 23:33:00,71.7,47.4,29.21,SSW,200,1.8,5.4,42,-99.99,,,-99.99,WSDL version 426,2013-09-15 04:33:00,
2013-09-14 23:38:00,71.4,47.1,29.21,South,177,2.3,3.8,42,-99.99,,,-99.99,WSDL version 426,2013-09-15 04:38:00,
2013-09-14 23:43:00,71.1,46.9,29.21,South,177,2.2,4.0,42,-99.99,,,-99.99,WSDL version 426,2013-09-15 04:43:00,
2013-09-14 23:48:00,71.1,46.8,29.21,SSE,165,2.9,5.6,42,-99.99,,,-99.99,WSDL version 426,2013-09-15 04:48:00,
2013-09-14 23:53:00,71.3,47.0,29.21,SSE,149,2.9,5.6,42,-99.99,,,-99.99,WSDL version 426,2013-09-15 04:53:00,
2013-09-14 23:58:00,71.3,46.7,29.21,ESE,120,2.6,4.3,41,-99.99,,,-99.99,WSDL version 426,2013-09-15 04:58:00,